Time;durP1;ratioP1;P1;durP2;ratioP2;P2;SDS_P1;SDS_P2;PMS_P1;PMS_P2;Temp;Humidity;BMP_temperature;BMP_pressure;BME280_temperature;BME280_humidity;BME280_pressure;Samples;Min_cycle;Max_cycle;Signal;HPM_P1;HPM_P2
2022/08/01 00:01:51;;;;;;;3.90;3.60;;;;;;;16.70;79.19;97574.22;7590159;23;20231;-68
2022/08/01 00:04:56;;;;;;;4.80;4.40;;;;;;;16.63;79.43;97576.72;7590785;23;20220;-67
2022/08/01 00:07:58;;;;;;;4.27;3.87;;;;;;;16.58;79.68;97569.16;7616112;23;20219;-68
2022/08/01 00:11:00;;;;;;;3.60;3.30;;;;;;;16.49;79.80;97563.97;7615392;23;20550;-66
2022/08/01 00:14:03;;;;;;;3.97;3.17;;;;;;;16.49;80.25;97569.31;7615750;23;20212;-68
2022/08/01 00:17:05;;;;;;;3.83;3.47;;;;;;;16.49;80.01;97562.16;7617028;23;20611;-67
2022/08/01 00:20:12;;;;;;;4.23;3.33;;;;;;;16.39;80.31;97564.13;7615194;23;20223;-67
2022/08/01 00:23:14;;;;;;;3.93;3.43;;;;;;;16.37;80.70;97559.97;7615599;23;20552;-67
2022/08/01 00:26:16;;;;;;;3.63;3.33;;;;;;;16.40;80.62;97565.78;7616192;23;20213;-68
2022/08/01 00:29:18;;;;;;;5.63;3.70;;;;;;;16.35;80.61;97553.97;7615519;23;20215;-67
2022/08/01 00:32:44;;;;;;;3.97;3.67;;;;;;;16.31;80.79;97557.94;7593938;23;20216;-67
2022/08/01 00:35:46;;;;;;;5.53;3.50;;;;;;;16.20;81.19;97545.75;7614984;23;20212;-67
2022/08/01 00:38:48;;;;;;;7.00;3.90;;;;;;;16.19;81.63;97558.22;7589297;23;20216;-67
2022/08/01 00:41:50;;;;;;;5.27;3.80;;;;;;;16.19;81.77;97554.72;7589543;23;20212;-67
2022/08/01 00:45:09;;;;;;;4.27;3.40;;;;;;;16.15;81.72;97556.91;7613630;23;20283;-66
2022/08/01 00:48:11;;;;;;;3.73;3.10;;;;;;;16.21;81.93;97560.75;7616907;23;20247;-67
2022/08/01 00:51:14;;;;;;;6.47;3.33;;;;;;;16.19;81.81;97560.88;7616572;23;20186;-67
2022/08/01 00:54:16;;;;;;;4.30;3.03;;;;;;;16.17;81.59;97554.09;7615160;23;20625;-67
2022/08/01 00:57:18;;;;;;;3.57;3.30;;;;;;;16.15;81.65;97548.06;7615299;23;20207;-67
2022/08/01 01:04:57;;;;;;;4.03;3.73;;;;;;;16.05;82.46;97564.19;7614845;23;20208;-67
2022/08/01 01:08:07;;;;;;;4.20;3.77;;;;;;;16.13;82.20;97558.06;7589709;23;20212;-66
2022/08/01 01:11:29;;;;;;;3.37;3.07;;;;;;;16.10;82.20;97563.69;7614340;23;20213;-67
2022/08/01 01:14:37;;;;;;;4.27;3.70;;;;;;;16.06;82.29;97557.88;7615330;23;20294;-67
2022/08/01 01:17:52;;;;;;;3.83;3.40;;;;;;;16.09;82.36;97564.69;7614480;23;20216;-66
2022/08/01 01:21:17;;;;;;;3.77;3.43;;;;;;;16.03;82.51;97557.34;7589842;23;20584;-67
2022/08/01 01:24:53;;;;;;;3.67;3.37;;;;;;;16.08;82.51;97563.00;7614724;23;20447;-67
2022/08/01 01:28:26;;;;;;;4.33;3.23;;;;;;;16.14;82.37;97554.41;7620456;23;20811;-67
2022/08/01 01:31:30;;;;;;;3.67;3.37;;;;;;;16.15;82.53;97561.41;7618880;23;20212;-68
2022/08/01 01:34:37;;;;;;;3.50;3.20;;;;;;;16.14;82.42;97549.91;7616572;23;20287;-67
2022/08/01 01:37:41;;;;;;;3.63;3.33;;;;;;;16.11;82.79;97547.56;7592322;23;20695;-67
2022/08/01 01:40:45;;;;;;;4.23;3.20;;;;;;;16.08;82.97;97550.53;7617719;23;20212;-67
2022/08/01 01:43:48;;;;;;;4.23;3.30;;;;;;;16.13;82.87;97544.75;7617613;23;20611;-68
2022/08/01 01:46:52;;;;;;;5.30;3.50;;;;;;;16.14;82.98;97554.41;7618010;23;20727;-67
2022/08/01 01:49:56;;;;;;;4.70;3.27;;;;;;;16.15;83.11;97543.59;7617511;23;20212;-67
2022/08/01 01:53:01;;;;;;;3.83;3.53;;;;;;;16.18;82.96;97539.75;7592089;23;20680;-67
2022/08/01 01:56:03;;;;;;;3.53;3.33;;;;;;;16.19;82.96;97541.41;7591750;23;20236;-67
2022/08/01 01:59:05;;;;;;;3.90;3.60;;;;;;;16.27;83.15;97541.44;7617223;23;20727;-67
2022/08/01 02:02:09;;;;;;;5.20;3.60;;;;;;;16.31;82.86;97539.28;7614943;23;20212;-67
2022/08/01 02:05:13;;;;;;;4.03;3.37;;;;;;;16.39;82.79;97528.66;7619172;23;20219;-67
2022/08/01 02:08:16;;;;;;;5.23;3.30;;;;;;;16.45;82.33;97544.00;7617271;23;20684;-67
2022/08/01 02:11:21;;;;;;;3.67;3.37;;;;;;;16.47;82.81;97536.69;7616631;23;20676;-67
2022/08/01 02:14:26;;;;;;;3.60;3.20;;;;;;;16.51;82.28;97538.00;7617363;23;20550;-67
2022/08/01 02:17:30;;;;;;;4.03;3.47;;;;;;;16.50;82.63;97531.84;7590796;23;20295;-68
2022/08/01 02:20:34;;;;;;;3.40;3.13;;;;;;;16.52;82.62;97532.53;7615908;23;20287;-67
2022/08/01 02:23:38;;;;;;;4.67;3.77;;;;;;;16.53;82.93;97542.19;7616987;23;20560;-67
2022/08/01 02:26:46;;;;;;;4.67;3.37;;;;;;;16.63;82.89;97538.56;7616975;23;20278;-68
2022/08/01 02:30:01;;;;;;;4.00;3.70;;;;;;;16.76;82.61;97537.09;7590562;23;20676;-68
2022/08/01 02:33:26;;;;;;;3.00;2.80;;;;;;;16.77;82.55;97530.75;7615944;23;20226;-68
2022/08/01 02:36:32;;;;;;;3.87;3.57;;;;;;;16.82;82.89;97535.59;7615925;23;20232;-67
2022/08/01 02:39:37;;;;;;;3.83;3.53;;;;;;;16.90;82.57;97532.91;7618036;23;20208;-67
2022/08/01 02:42:43;;;;;;;4.83;3.30;;;;;;;16.96;82.67;97530.44;7591067;23;20204;-68
2022/08/01 02:45:49;;;;;;;3.03;2.60;;;;;;;17.10;79.63;97522.75;7616769;23;20734;-68
2022/08/01 02:48:56;;;;;;;2.60;2.40;;;;;;;17.68;73.89;97523.34;7616462;23;20228;-67
2022/08/01 02:52:06;;;;;;;2.50;2.30;;;;;;;18.12;71.38;97516.66;7591716;23;20584;-67
2022/08/01 02:55:10;;;;;;;2.30;2.10;;;;;;;18.18;70.96;97516.78;7591612;23;20220;-68
2022/08/01 02:58:15;;;;;;;3.77;2.60;;;;;;;18.26;72.49;97513.28;7616399;23;20212;-68
2022/08/01 03:01:20;;;;;;;4.13;2.57;;;;;;;18.12;73.82;97504.16;7616837;23;20686;-67
2022/08/01 03:04:24;;;;;;;3.10;2.80;;;;;;;18.10;74.94;97508.81;7616487;23;20212;-68
2022/08/01 03:07:29;;;;;;;2.90;2.30;;;;;;;17.99;73.84;97506.53;7618668;23;20735;-67
2022/08/01 03:10:44;;;;;;;3.17;2.20;;;;;;;17.96;75.44;97496.22;7616363;23;20663;-67
2022/08/01 03:13:48;;;;;;;2.67;2.40;;;;;;;17.93;75.99;97496.56;7616855;23;20212;-67
2022/08/01 03:16:52;;;;;;;4.00;2.90;;;;;;;17.75;77.89;97490.63;7616311;23;20287;-68
2022/08/01 03:19:57;;;;;;;3.00;2.80;;;;;;;17.60;78.92;97488.63;7590417;23;20607;-68
2022/08/01 03:23:07;;;;;;;3.20;2.70;;;;;;;17.53;79.04;97490.34;7616727;23;20774;-68
2022/08/01 03:26:10;;;;;;;3.27;2.90;;;;;;;17.49;79.52;97482.84;7615061;23;20216;-68
2022/08/01 03:29:17;;;;;;;3.73;2.87;;;;;;;17.42;80.02;97492.53;7617140;23;20261;-67
2022/08/01 03:32:20;;;;;;;4.50;3.00;;;;;;;17.36;80.34;97486.06;7616939;23;20288;-68
2022/08/01 03:35:29;;;;;;;2.73;2.53;;;;;;;17.30;80.63;97487.56;7617404;23;20212;-68
2022/08/01 03:38:34;;;;;;;2.60;2.40;;;;;;;17.29;80.79;97488.56;7590614;23;20219;-68
2022/08/01 03:41:40;;;;;;;2.87;2.67;;;;;;;17.28;80.86;97491.38;7614996;23;20739;-68
2022/08/01 03:44:53;;;;;;;3.20;2.90;;;;;;;17.25;81.00;97492.56;7616588;23;20696;-68
2022/08/01 03:48:01;;;;;;;3.17;2.97;;;;;;;17.23;81.27;97499.91;7589932;23;20223;-68
2022/08/01 03:51:05;;;;;;;3.67;2.73;;;;;;;17.22;81.25;97497.41;7615647;23;20574;-68
2022/08/01 03:54:10;;;;;;;3.00;2.27;;;;;;;17.23;81.26;97499.06;7587639;23;20589;-67
2022/08/01 03:57:13;;;;;;;3.10;2.60;;;;;;;17.24;81.48;97495.41;7615446;23;20207;-68
2022/08/01 04:00:41;;;;;;;2.80;2.40;;;;;;;17.26;81.26;97498.75;7614675;23;20204;-67
2022/08/01 04:03:44;;;;;;;2.63;2.43;;;;;;;17.29;81.15;97506.38;7589542;23;20222;-68
2022/08/01 04:06:50;;;;;;;2.87;2.67;;;;;;;17.30;80.97;97516.91;7613988;23;20549;-68
2022/08/01 04:09:52;;;;;;;2.50;2.30;;;;;;;17.32;80.64;97514.91;7615157;23;20295;-68
2022/08/01 04:12:55;;;;;;;4.33;2.50;;;;;;;17.34;80.59;97509.41;7614809;23;20585;-67
2022/08/01 04:15:57;;;;;;;3.00;2.70;;;;;;;17.36;80.46;97522.56;7615983;23;20240;-69
2022/08/01 04:18:59;;;;;;;2.67;2.47;;;;;;;17.38;80.55;97518.72;7614716;23;20220;-68
2022/08/01 04:22:02;;;;;;;2.50;2.30;;;;;;;17.41;80.37;97518.38;7588854;23;20282;-68
2022/08/01 04:25:11;;;;;;;2.87;2.60;;;;;;;17.48;80.42;97523.84;7615116;23;20232;-68
2022/08/01 04:28:17;;;;;;;2.80;2.60;;;;;;;17.51;80.03;97524.38;7590076;23;20527;-68
2022/08/01 04:31:19;;;;;;;3.30;2.60;;;;;;;17.57;80.28;97529.00;7615454;23;20550;-69
2022/08/01 04:34:24;;;;;;;2.40;2.30;;;;;;;17.63;79.64;97531.03;7588911;23;20255;-68
2022/08/01 04:37:27;;;;;;;2.83;2.63;;;;;;;17.63;80.23;97524.88;7614776;23;20700;-68
2022/08/01 04:40:30;;;;;;;2.53;2.33;;;;;;;17.65;80.12;97531.72;7614579;23;20598;-68
2022/08/01 04:43:33;;;;;;;3.73;2.33;;;;;;;17.67;80.42;97527.00;7614331;23;20204;-68
2022/08/01 04:46:36;;;;;;;2.73;2.53;;;;;;;17.71;80.32;97527.50;7615296;23;20594;-69
2022/08/01 04:49:40;;;;;;;4.60;2.50;;;;;;;17.74;80.22;97526.34;7589448;23;20267;-69
2022/08/01 04:52:51;;;;;;;4.23;2.57;;;;;;;17.79;79.93;97532.81;7588225;23;20581;-69
2022/08/01 04:55:53;;;;;;;2.50;2.30;;;;;;;17.79;79.90;97531.97;7613370;23;20212;-68
2022/08/01 05:02:20;;;;;;;2.87;2.60;;;;;;;17.88;79.72;97533.63;7614493;23;20292;-68
2022/08/01 05:05:23;;;;;;;4.90;2.40;;;;;;;17.95;79.30;97538.13;7614243;23;20236;-69
2022/08/01 05:08:25;;;;;;;2.87;2.60;;;;;;;18.03;79.34;97530.06;7613889;23;20266;-68
2022/08/01 05:11:27;;;;;;;2.60;2.40;;;;;;;18.16;79.04;97532.19;7588195;23;20216;-68
2022/08/01 05:14:32;;;;;;;2.43;2.23;;;;;;;18.28;78.51;97532.59;7613705;23;20529;-68
2022/08/01 05:17:35;;;;;;;3.20;2.30;;;;;;;18.39;78.51;97535.72;7613919;23;20525;-68
2022/08/01 05:20:38;;;;;;;2.53;2.30;;;;;;;18.47;78.28;97534.84;7586998;23;20298;-68
2022/08/01 05:23:40;;;;;;;2.23;2.13;;;;;;;18.55;77.81;97534.81;7613983;23;20577;-68
2022/08/01 05:26:44;;;;;;;2.87;2.30;;;;;;;18.57;78.12;97532.81;7588815;23;20204;-68
2022/08/01 05:29:48;;;;;;;3.30;2.67;;;;;;;18.67;77.72;97540.59;7588371;23;20218;-67
2022/08/01 05:32:50;;;;;;;2.67;2.30;;;;;;;18.70;77.42;97530.38;7589032;23;20243;-68
2022/08/01 05:35:52;;;;;;;2.20;2.03;;;;;;;18.75;77.12;97535.22;7564489;23;20696;-68
2022/08/01 05:38:55;;;;;;;2.30;2.13;;;;;;;18.80;76.99;97525.63;7588805;23;20213;-68
2022/08/01 05:41:57;;;;;;;2.60;2.40;;;;;;;18.84;76.84;97539.50;7587571;23;20216;-68
2022/08/01 05:44:59;;;;;;;4.57;2.30;;;;;;;18.90;76.94;97541.44;7614323;23;20215;-68
2022/08/01 05:48:01;;;;;;;4.27;2.10;;;;;;;18.99;76.81;97539.53;7614684;23;20192;-69
2022/08/01 05:51:03;;;;;;;2.57;2.37;;;;;;;19.08;76.79;97547.31;7589763;23;20270;-69
2022/08/01 05:54:05;;;;;;;2.50;2.30;;;;;;;19.17;76.57;97545.38;7564040;23;20664;-69
2022/08/01 05:57:07;;;;;;;2.40;2.20;;;;;;;19.27;76.55;97548.66;7613121;23;20203;-68
2022/08/01 06:00:12;;;;;;;2.87;2.20;;;;;;;19.39;76.29;97549.88;7613910;23;20184;-68
2022/08/01 06:03:14;;;;;;;2.77;2.57;;;;;;;19.52;75.97;97550.13;7588042;23;20252;-69
2022/08/01 06:06:16;;;;;;;2.27;2.17;;;;;;;19.65;75.95;97559.38;7613776;23;20181;-69
2022/08/01 06:09:25;;;;;;;2.73;2.20;;;;;;;19.77;75.36;97553.38;7616893;23;20228;-69
2022/08/01 06:12:27;;;;;;;2.30;2.10;;;;;;;19.92;74.86;97556.06;7616428;23;20572;-69
2022/08/01 06:15:36;;;;;;;3.50;2.53;;;;;;;20.01;74.41;97559.47;7613766;23;20216;-69
2022/08/01 06:18:38;;;;;;;3.97;2.73;;;;;;;20.16;73.98;97557.63;7615884;23;20216;-68
2022/08/01 06:21:40;;;;;;;2.40;2.20;;;;;;;20.27;74.03;97557.13;7616004;23;20680;-68
2022/08/01 06:24:42;;;;;;;2.53;2.33;;;;;;;20.35;73.44;97557.09;7590327;23;20280;-68
2022/08/01 06:27:44;;;;;;;2.23;2.00;;;;;;;20.54;72.95;97566.38;7591083;23;20212;-69
2022/08/01 06:30:46;;;;;;;2.23;1.93;;;;;;;20.70;71.97;97559.94;7615684;23;20224;-69
2022/08/01 06:33:48;;;;;;;1.97;1.87;;;;;;;20.79;71.73;97565.00;7616385;23;20219;-69
2022/08/01 06:36:50;;;;;;;2.93;1.90;;;;;;;20.87;71.87;97564.88;7616860;23;20247;-69
2022/08/01 06:39:52;;;;;;;2.47;2.13;;;;;;;21.09;71.04;97564.88;7616070;23;20208;-69
2022/08/01 06:42:54;;;;;;;2.53;1.90;;;;;;;21.44;69.75;97557.81;7589182;23;20719;-68
2022/08/01 06:45:56;;;;;;;2.53;1.80;;;;;;;21.79;65.45;97547.91;7616211;23;20208;-68
2022/08/01 06:48:58;;;;;;;1.83;1.73;;;;;;;22.25;61.05;97551.75;7617894;23;20259;-69
2022/08/01 06:52:01;;;;;;;2.53;1.93;;;;;;;22.51;57.57;97548.31;7589863;23;20211;-68
2022/08/01 06:55:04;;;;;;;2.83;1.57;;;;;;;22.59;56.18;97552.69;7591070;23;20259;-68
2022/08/01 06:58:06;;;;;;;1.90;1.77;;;;;;;22.74;55.71;97547.97;7616151;23;20260;-69
2022/08/01 07:01:08;;;;;;;2.00;1.80;;;;;;;22.90;53.66;97553.00;7615940;23;20208;-68
2022/08/01 07:04:14;;;;;;;1.63;1.53;;;;;;;23.00;55.19;97556.13;7590914;23;20220;-68
2022/08/01 07:07:20;;;;;;;2.27;1.60;;;;;;;22.88;56.00;97556.94;7615779;23;20658;-68
2022/08/01 07:10:23;;;;;;;1.83;1.53;;;;;;;22.83;56.04;97560.25;7615765;23;20590;-68
2022/08/01 07:13:30;;;;;;;1.60;1.50;;;;;;;22.74;58.50;97559.56;7616918;23;20837;-68
2022/08/01 07:16:44;;;;;;;1.70;1.60;;;;;;;22.70;60.25;97558.31;7615750;23;20240;-68
2022/08/01 07:19:47;;;;;;;1.60;1.50;;;;;;;22.75;60.23;97560.44;7588891;23;20579;-68
2022/08/01 07:22:49;;;;;;;1.80;1.70;;;;;;;22.74;60.54;97554.19;7588101;23;20247;-68
2022/08/01 07:25:52;;;;;;;1.80;1.70;;;;;;;22.72;60.29;97550.88;7615186;23;20212;-68
2022/08/01 07:28:58;;;;;;;1.70;1.60;;;;;;;22.65;61.84;97568.88;7616634;23;20524;-67
2022/08/01 07:32:01;;;;;;;2.87;1.80;;;;;;;22.65;61.44;97568.88;7590788;23;20219;-68
2022/08/01 07:35:04;;;;;;;1.80;1.70;;;;;;;22.59;61.57;97572.34;7589286;23;20219;-68
2022/08/01 07:38:07;;;;;;;2.47;1.83;;;;;;;22.59;62.22;97575.03;7589122;23;20610;-68
2022/08/01 07:41:14;;;;;;;1.87;1.77;;;;;;;22.59;63.10;97569.66;7589236;23;20212;-68
2022/08/01 07:44:16;;;;;;;1.60;1.50;;;;;;;22.59;63.55;97563.44;7614972;23;20235;-68
2022/08/01 07:47:26;;;;;;;1.93;1.70;;;;;;;22.60;63.86;97573.19;7614300;23;20208;-68
2022/08/01 07:50:29;;;;;;;1.97;1.67;;;;;;;22.53;64.88;97578.53;7588504;23;20219;-68
2022/08/01 07:53:34;;;;;;;2.00;1.50;;;;;;;22.57;64.74;97577.09;7614386;23;20216;-69
2022/08/01 07:56:38;;;;;;;1.60;1.50;;;;;;;22.78;61.53;97586.91;7616720;23;20209;-67
2022/08/01 07:59:40;;;;;;;2.07;1.50;;;;;;;22.94;60.74;97583.88;7615381;23;20216;-68
2022/08/01 08:02:43;;;;;;;1.87;1.40;;;;;;;23.21;57.18;97581.22;7614281;23;20213;-68
2022/08/01 08:05:46;;;;;;;2.23;1.70;;;;;;;23.57;53.51;97584.38;7612517;23;20287;-68
2022/08/01 08:09:00;;;;;;;1.63;1.53;;;;;;;23.94;52.58;97588.31;7614606;23;20264;-67
2022/08/01 08:12:02;;;;;;;1.53;1.40;;;;;;;24.14;52.19;97577.47;7613780;23;20634;-67
2022/08/01 08:15:05;;;;;;;2.07;1.60;;;;;;;24.42;50.67;97582.59;7614651;23;20242;-67
2022/08/01 08:18:07;;;;;;;2.17;1.67;;;;;;;24.75;50.76;97575.22;7613586;23;20667;-68
2022/08/01 08:21:09;;;;;;;1.60;1.43;;;;;;;25.03;50.07;97584.84;7613095;23;20629;-69
2022/08/01 08:24:20;;;;;;;1.67;1.40;;;;;;;25.05;50.78;97590.84;7588789;23;20636;-68
2022/08/01 08:27:28;;;;;;;2.40;1.58;;;;;;;24.96;50.07;97590.25;7588147;23;20418;-68
2022/08/01 08:30:30;;;;;;;1.95;1.77;;;;;;;24.93;49.47;97594.25;7588241;23;20213;-68
2022/08/01 08:33:32;;;;;;;1.80;1.70;;;;;;;25.13;49.05;97596.00;7564542;23;20216;-69
2022/08/01 08:36:34;;;;;;;2.55;1.90;;;;;;;25.77;47.36;97597.59;7591432;23;20211;-69
2022/08/01 08:39:39;;;;;;;1.63;1.52;;;;;;;26.69;46.82;97585.84;7615108;23;20689;-68
2022/08/01 08:42:46;;;;;;;3.85;1.80;;;;;;;27.24;44.13;97591.16;7588423;23;20204;-68
2022/08/01 08:45:48;;;;;;;1.90;1.60;;;;;;;27.49;43.58;97602.66;7615956;23;20711;-68
2022/08/01 08:49:03;;;;;;;1.92;1.80;;;;;;;27.90;42.12;97597.19;7613130;23;20205;-68
2022/08/01 08:52:09;;;;;;;2.03;1.75;;;;;;;27.95;42.22;97596.47;7614824;23;20213;-69
2022/08/01 08:55:14;;;;;;;3.30;2.00;;;;;;;27.92;42.16;97597.78;7614424;23;20262;-68
2022/08/01 08:58:19;;;;;;;2.08;1.88;;;;;;;28.04;42.38;97603.22;7613886;23;20282;-68
2022/08/01 09:01:21;;;;;;;2.25;2.05;;;;;;;27.61;42.13;97608.97;7587238;23;20517;-67
2022/08/01 09:04:25;;;;;;;2.88;2.08;;;;;;;27.14;42.15;97605.28;7615136;23;20303;-67
2022/08/01 09:07:27;;;;;;;1.83;1.73;;;;;;;26.66;43.75;97600.66;7588066;23;20563;-67
2022/08/01 09:10:29;;;;;;;2.20;2.00;;;;;;;27.06;44.50;97592.03;7587759;23;20219;-68
2022/08/01 09:13:32;;;;;;;1.90;1.73;;;;;;;27.99;42.39;97589.53;7587962;23;20208;-68
2022/08/01 09:16:37;;;;;;;4.15;2.03;;;;;;;28.73;40.85;97597.97;7614574;23;20274;-68
2022/08/01 09:19:44;;;;;;;3.15;2.15;;;;;;;29.16;39.80;97589.31;7613342;23;20310;-69
2022/08/01 09:22:46;;;;;;;2.20;2.05;;;;;;;29.55;39.35;97602.00;7587936;23;20239;-69
2022/08/01 09:25:52;;;;;;;3.58;2.08;;;;;;;29.80;37.53;97589.91;7587840;23;20216;-69
2022/08/01 09:29:03;;;;;;;3.88;2.00;;;;;;;30.28;37.93;97601.00;7587138;23;20209;-69
2022/08/01 09:32:06;;;;;;;2.15;1.92;;;;;;;30.16;37.34;97586.66;7612597;23;20751;-69
2022/08/01 09:35:23;;;;;;;3.65;2.08;;;;;;;30.90;37.52;97591.75;7586809;23;20697;-69
2022/08/01 09:38:32;;;;;;;3.03;2.30;;;;;;;30.32;36.60;97596.72;7614496;23;20292;-69
2022/08/01 09:41:35;;;;;;;2.90;2.28;;;;;;;29.75;37.89;97598.78;7614339;23;20236;-69
2022/08/01 09:44:43;;;;;;;2.10;1.90;;;;;;;29.81;38.06;97597.81;7614718;23;20220;-68
2022/08/01 09:47:56;;;;;;;3.22;2.38;;;;;;;30.24;38.22;97596.31;7587524;23;20212;-70
2022/08/01 09:50:59;;;;;;;3.03;2.33;;;;;;;30.59;37.86;97583.22;7614943;23;20603;-69
2022/08/01 09:54:08;;;;;;;2.28;2.08;;;;;;;31.13;36.33;97578.69;7615859;23;20207;-70
2022/08/01 09:57:16;;;;;;;3.25;2.20;;;;;;;31.00;35.98;97573.59;7590125;23;20180;-70
2022/08/01 10:00:18;;;;;;;3.03;1.98;;;;;;;30.79;37.03;97571.72;7588859;23;20287;-69
2022/08/01 10:03:40;;;;;;;2.28;2.03;;;;;;;30.23;36.03;97583.78;7616305;23;20224;-70
2022/08/01 10:06:45;;;;;;;2.55;2.00;;;;;;;30.43;35.36;97586.78;7591993;23;20640;-69
2022/08/01 10:09:48;;;;;;;2.85;2.08;;;;;;;30.86;35.19;97583.25;7615260;23;20220;-69
2022/08/01 10:12:52;;;;;;;1.98;1.80;;;;;;;31.10;34.84;97570.19;7615091;23;20587;-69
2022/08/01 10:15:54;;;;;;;2.78;2.53;;;;;;;31.35;34.37;97567.69;7615320;23;20208;-69
2022/08/01 10:19:01;;;;;;;2.10;1.77;;;;;;;31.34;35.00;97566.09;7589564;23;20669;-68
2022/08/01 10:22:08;;;;;;;3.75;2.33;;;;;;;31.85;34.08;97563.78;7615346;23;20224;-69
2022/08/01 10:25:16;;;;;;;2.10;2.00;;;;;;;32.01;33.76;97556.53;7614045;23;20215;-69
2022/08/01 10:28:39;;;;;;;2.30;2.10;;;;;;;32.11;33.45;97565.63;7589471;23;20209;-70
2022/08/01 10:31:42;;;;;;;2.17;1.98;;;;;;;32.21;34.05;97554.78;7591423;23;20267;-69
2022/08/01 10:34:52;;;;;;;2.05;1.95;;;;;;;32.53;34.74;97559.31;7615426;23;20213;-70
2022/08/01 10:37:57;;;;;;;2.33;2.13;;;;;;;32.80;33.24;97567.38;7615780;23;20710;-69
2022/08/01 10:41:02;;;;;;;1.90;1.80;;;;;;;33.06;31.47;97560.03;7616268;23;20216;-69
2022/08/01 10:44:09;;;;;;;2.25;2.15;;;;;;;32.98;31.17;97584.09;7590986;23;20724;-69
2022/08/01 10:47:13;;;;;;;2.40;2.22;;;;;;;32.71;31.80;97585.38;7617035;23;20311;-69
2022/08/01 10:50:29;;;;;;;2.40;2.20;;;;;;;32.68;32.63;97570.28;7591193;23;20240;-70
2022/08/01 10:53:33;;;;;;;2.40;2.05;;;;;;;33.33;32.26;97555.22;7589767;23;20279;-69
2022/08/01 10:56:47;;;;;;;2.45;2.10;;;;;;;33.44;29.80;97545.09;7615345;23;20716;-70
2022/08/01 10:59:51;;;;;;;2.20;2.05;;;;;;;33.43;30.79;97554.41;7616115;23;20220;-70
2022/08/01 11:03:03;;;;;;;3.60;1.88;;;;;;;33.63;30.86;97548.94;7616290;23;20215;-69
2022/08/01 11:06:06;;;;;;;2.20;1.90;;;;;;;33.02;31.38;97551.56;7616540;23;20271;-69
2022/08/01 11:09:15;;;;;;;2.22;2.03;;;;;;;33.13;30.63;97558.72;7590253;23;20341;-69
2022/08/01 11:12:18;;;;;;;3.10;1.83;;;;;;;33.01;30.48;97557.31;7615036;23;20187;-69
2022/08/01 11:15:25;;;;;;;2.75;1.90;;;;;;;33.45;30.22;97547.53;7615878;23;20236;-70
2022/08/01 11:18:32;;;;;;;1.70;1.60;;;;;;;33.81;29.69;97545.66;7590827;23;20547;-69
2022/08/01 11:21:56;;;;;;;2.30;2.00;;;;;;;33.84;27.30;97544.31;7616425;23;20208;-70
2022/08/01 11:25:02;;;;;;;1.70;1.60;;;;;;;34.13;27.59;97541.78;7614904;23;20213;-69
2022/08/01 11:28:25;;;;;;;1.80;1.70;;;;;;;34.18;27.79;97537.09;7615543;23;20208;-70
2022/08/01 11:31:36;;;;;;;1.75;1.60;;;;;;;34.02;29.42;97547.28;7615847;23;20299;-70
2022/08/01 11:34:57;;;;;;;2.45;2.00;;;;;;;33.92;29.14;97541.00;7616191;23;20640;-69
2022/08/01 11:38:27;;;;;;;2.78;1.85;;;;;;;34.49;28.76;97548.00;7613578;23;20224;-69
2022/08/01 11:41:32;;;;;;;2.00;1.83;;;;;;;34.54;28.78;97561.69;7616091;23;20243;-69
2022/08/01 11:44:50;;;;;;;2.15;1.95;;;;;;;34.35;29.99;97551.31;7614518;23;20267;-70
2022/08/01 11:47:52;;;;;;;2.10;1.90;;;;;;;34.15;30.23;97553.25;7614987;23;20205;-68
2022/08/01 11:50:55;;;;;;;2.00;1.90;;;;;;;33.90;29.79;97554.97;7589481;23;20211;-69
2022/08/01 11:53:58;;;;;;;2.55;1.88;;;;;;;34.02;29.83;97558.25;7589375;23;20299;-68
2022/08/01 11:57:07;;;;;;;3.08;2.10;;;;;;;33.67;30.53;97566.44;7614915;23;20205;-68
2022/08/01 12:00:16;;;;;;;2.70;2.10;;;;;;;32.60;30.46;97555.25;7589492;23;20204;-69
2022/08/01 12:03:32;;;;;;;1.55;1.45;;;;;;;33.19;29.91;97565.81;7589403;23;20181;-69
2022/08/01 12:06:35;;;;;;;2.20;2.00;;;;;;;33.50;30.67;97566.72;7595432;23;20213;-68
2022/08/01 12:09:37;;;;;;;2.58;1.95;;;;;;;33.80;30.66;97562.38;7614545;23;20664;-69
2022/08/01 12:12:50;;;;;;;2.13;1.98;;;;;;;34.57;29.69;97555.63;7614594;23;20208;-69
2022/08/01 12:15:53;;;;;;;2.33;2.00;;;;;;;35.45;28.89;97555.72;7588356;23;20545;-68
2022/08/01 12:18:57;;;;;;;2.25;1.92;;;;;;;35.52;27.44;97550.75;7587172;23;20228;-67
2022/08/01 12:22:11;;;;;;;1.67;1.58;;;;;;;35.90;27.00;97553.75;7587732;23;20259;-68
2022/08/01 12:25:16;;;;;;;1.80;1.50;;;;;;;35.59;25.59;97566.88;7614637;23;20218;-66
2022/08/01 12:28:18;;;;;;;1.58;1.30;;;;;;;35.06;27.05;97556.50;7614693;23;20236;-68
2022/08/01 12:31:31;;;;;;;1.23;1.13;;;;;;;34.81;27.53;97555.84;7614378;23;20553;-69
2022/08/01 12:34:34;;;;;;;1.45;1.33;;;;;;;33.53;28.99;97562.63;7613616;23;20283;-67
2022/08/01 12:37:37;;;;;;;2.50;1.40;;;;;;;32.94;30.03;97563.06;7613945;23;20302;-68
2022/08/01 12:40:44;;;;;;;1.98;1.40;;;;;;;33.35;29.35;97562.03;7612465;23;20287;-68
2022/08/01 12:43:47;;;;;;;1.55;1.45;;;;;;;33.55;29.29;97555.75;7612696;23;20216;-67
2022/08/01 12:46:50;;;;;;;2.08;1.73;;;;;;;33.21;29.30;97560.91;7613789;23;20255;-69
2022/08/01 12:49:52;;;;;;;1.67;1.55;;;;;;;33.04;29.70;97560.34;7565433;23;20219;-69
2022/08/01 12:52:55;;;;;;;1.98;1.40;;;;;;;32.86;29.83;97560.81;7614081;23;20208;-69
2022/08/01 12:55:57;;;;;;;1.40;1.30;;;;;;;32.97;30.51;97555.09;7614194;23;20219;-69
2022/08/01 12:59:01;;;;;;;1.80;1.70;;;;;;;33.14;30.26;97540.41;7588621;23;20212;-68
2022/08/01 13:02:08;;;;;;;3.25;1.98;;;;;;;32.54;31.88;97533.63;7565096;23;20292;-68
2022/08/01 13:05:12;;;;;;;2.00;1.90;;;;;;;33.02;31.43;97528.88;7621035;23;20733;-68
2022/08/01 13:08:34;;;;;;;2.10;1.90;;;;;;;33.58;31.95;97529.75;7615179;23;20211;-68
2022/08/01 13:11:36;;;;;;;2.00;1.80;;;;;;;33.80;30.84;97544.03;7587979;23;20340;-69
2022/08/01 13:14:38;;;;;;;2.03;1.90;;;;;;;33.57;31.20;97544.53;7588434;23;20215;-69
2022/08/01 13:17:42;;;;;;;1.42;1.33;;;;;;;33.45;31.12;97541.25;7588220;23;20545;-68
2022/08/01 13:20:44;;;;;;;1.83;1.67;;;;;;;33.16;30.95;97538.19;7588407;23;20287;-68
2022/08/01 13:24:13;;;;;;;1.85;1.70;;;;;;;32.50;31.84;97529.78;7589385;23;20219;-69
2022/08/01 13:27:25;;;;;;;2.20;1.63;;;;;;;32.54;32.48;97534.41;7619088;23;20208;-69
2022/08/01 13:30:27;;;;;;;2.35;1.40;;;;;;;32.73;32.52;97534.81;7617293;23;20690;-68
2022/08/01 13:33:47;;;;;;;2.85;1.25;;;;;;;32.99;30.63;97506.44;7617947;23;20684;-68
2022/08/01 13:37:02;;;;;;;1.33;1.23;;;;;;;34.13;29.28;97515.22;7617704;23;20219;-68
2022/08/01 13:40:10;;;;;;;4.68;1.58;;;;;;;34.32;28.53;97505.31;7594791;23;20220;-68
2022/08/01 13:43:12;;;;;;;1.60;1.50;;;;;;;34.60;28.90;97500.25;7617438;23;20212;-68
2022/08/01 13:46:14;;;;;;;1.65;1.50;;;;;;;35.45;27.06;97509.06;7592240;23;20299;-68
2022/08/01 13:49:19;;;;;;;1.60;1.50;;;;;;;35.13;26.90;97507.66;7592284;23;20215;-68
2022/08/01 13:52:23;;;;;;;3.83;1.48;;;;;;;33.92;28.15;97524.56;7617982;23;20700;-68
2022/08/01 13:55:25;;;;;;;1.40;1.30;;;;;;;33.79;29.15;97511.44;7594024;23;20212;-68
2022/08/01 13:58:35;;;;;;;1.95;1.02;;;;;;;34.25;26.84;97510.25;7617693;23;20295;-69
2022/08/01 14:01:55;;;;;;;1.33;1.10;;;;;;;34.27;28.00;97513.53;7617382;23;20684;-68
2022/08/01 14:04:58;;;;;;;3.42;1.38;;;;;;;34.94;26.87;97509.41;7618897;23;20528;-69
2022/08/01 14:08:00;;;;;;;1.63;1.52;;;;;;;36.47;24.95;97508.88;7618277;23;20219;-69
2022/08/01 14:11:02;;;;;;;1.08;1.08;;;;;;;38.48;22.50;97510.63;7617584;23;20208;-68
2022/08/01 14:14:08;;;;;;;1.15;1.15;;;;;;;40.76;20.09;97525.19;7591524;23;20212;-69
2022/08/01 14:17:10;;;;;;;1.10;1.10;;;;;;;42.43;18.71;97523.63;7618034;23;20212;-68
2022/08/01 14:20:12;;;;;;;1.35;1.13;;;;;;;43.62;17.58;97531.50;7617727;23;20587;-69
2022/08/01 14:23:14;;;;;;;1.48;1.38;;;;;;;42.67;18.18;97524.59;7617679;23;20236;-69
2022/08/01 14:26:16;;;;;;;1.27;1.17;;;;;;;42.38;18.04;97540.44;7618160;23;22327;-69
2022/08/01 14:29:18;;;;;;;1.20;1.10;;;;;;;38.87;21.69;97537.69;7618100;23;20217;-70
2022/08/01 14:32:20;;;;;;;1.20;1.10;;;;;;;37.26;23.94;97543.06;7617675;23;20235;-68
2022/08/01 14:35:29;;;;;;;1.38;1.20;;;;;;;37.33;23.21;97540.78;7617253;23;20300;-69
2022/08/01 14:38:51;;;;;;;1.33;0.88;;;;;;;37.86;23.07;97532.19;7589762;23;20295;-70
2022/08/01 14:41:53;;;;;;;1.40;1.30;;;;;;;38.60;22.51;97527.53;7590053;23;20213;-69
2022/08/01 14:44:56;;;;;;;2.88;1.30;;;;;;;41.97;18.43;97533.53;7589282;23;20219;-69